sensor_id;sensor_type;location;lat;lon;timestamp;pressure;altitude;pressure_sealevel;temperature;humidity
82858;BME280;72620;47.774;9.620;2024-02-21T00:01:03;97390.69;;;2.88;89.63
82858;BME280;72620;47.774;9.620;2024-02-21T00:03:32;97391.97;;;2.80;89.77
82858;BME280;72620;47.774;9.620;2024-02-21T00:05:59;97394.44;;;2.81;90.32
82858;BME280;72620;47.774;9.620;2024-02-21T00:08:26;97406.88;;;2.86;90.07
82858;BME280;72620;47.774;9.620;2024-02-21T00:10:53;97404.19;;;2.89;90.12
82858;BME280;72620;47.774;9.620;2024-02-21T00:13:21;97406.56;;;2.92;89.66
82858;BME280;72620;47.774;9.620;2024-02-21T00:15:48;97396.88;;;3.00;88.85
82858;BME280;72620;47.774;9.620;2024-02-21T00:18:15;97391.41;;;3.08;88.50
82858;BME280;72620;47.774;9.620;2024-02-21T00:20:42;97386.81;;;3.14;88.57
82858;BME280;72620;47.774;9.620;2024-02-21T00:23:09;97384.16;;;3.17;88.54
82858;BME280;72620;47.774;9.620;2024-02-21T00:25:36;97387.50;;;3.18;88.17
82858;BME280;72620;47.774;9.620;2024-02-21T00:28:04;97390.78;;;3.20;88.48
82858;BME280;72620;47.774;9.620;2024-02-21T00:30:32;97389.06;;;3.20;88.08
82858;BME280;72620;47.774;9.620;2024-02-21T00:32:59;97382.44;;;3.18;88.41
82858;BME280;72620;47.774;9.620;2024-02-21T00:35:27;97389.97;;;3.19;89.22
82858;BME280;72620;47.774;9.620;2024-02-21T00:37:54;97386.59;;;3.19;89.15
82858;BME280;72620;47.774;9.620;2024-02-21T00:40:21;97384.88;;;3.19;90.19
82858;BME280;72620;47.774;9.620;2024-02-21T00:42:48;97384.66;;;3.24;88.76
82858;BME280;72620;47.774;9.620;2024-02-21T00:45:16;97388.09;;;3.23;88.60
82858;BME280;72620;47.774;9.620;2024-02-21T00:47:43;97380.72;;;3.18;88.56
82858;BME280;72620;47.774;9.620;2024-02-21T00:50:10;97378.34;;;3.15;88.97
82858;BME280;72620;47.774;9.620;2024-02-21T00:52:37;97360.81;;;3.11;88.64
82858;BME280;72620;47.774;9.620;2024-02-21T00:55:05;97369.53;;;3.05;88.95
82858;BME280;72620;47.774;9.620;2024-02-21T00:57:33;97368.16;;;3.00;89.27
82858;BME280;72620;47.774;9.620;2024-02-21T01:00:01;97370.91;;;2.95;89.36
82858;BME280;72620;47.774;9.620;2024-02-21T01:02:29;97370.19;;;2.93;89.24
82858;BME280;72620;47.774;9.620;2024-02-21T01:05:00;97373.19;;;2.84;89.98
82858;BME280;72620;47.774;9.620;2024-02-21T01:07:28;97368.16;;;2.82;90.43
82858;BME280;72620;47.774;9.620;2024-02-21T01:09:55;97373.31;;;2.81;90.88
82858;BME280;72620;47.774;9.620;2024-02-21T01:12:22;97369.06;;;2.81;90.73
82858;BME280;72620;47.774;9.620;2024-02-21T01:14:49;97367.50;;;2.79;91.61
82858;BME280;72620;47.774;9.620;2024-02-21T01:17:16;97362.44;;;2.79;90.72
82858;BME280;72620;47.774;9.620;2024-02-21T01:19:46;97355.75;;;2.78;91.19
82858;BME280;72620;47.774;9.620;2024-02-21T01:22:13;97348.94;;;2.78;91.57
82858;BME280;72620;47.774;9.620;2024-02-21T01:24:41;97342.25;;;2.77;90.25
82858;BME280;72620;47.774;9.620;2024-02-21T01:27:09;97335.53;;;2.76;90.10
82858;BME280;72620;47.774;9.620;2024-02-21T01:29:36;97339.75;;;2.76;89.89
82858;BME280;72620;47.774;9.620;2024-02-21T01:32:03;97338.28;;;2.72;90.22
82858;BME280;72620;47.774;9.620;2024-02-21T01:34:31;97341.00;;;2.69;90.47
82858;BME280;72620;47.774;9.620;2024-02-21T01:36:58;97336.72;;;2.69;90.48
82858;BME280;72620;47.774;9.620;2024-02-21T01:39:26;97334.88;;;2.73;91.54
82858;BME280;72620;47.774;9.620;2024-02-21T01:41:53;97330.53;;;2.75;91.42
82858;BME280;72620;47.774;9.620;2024-02-21T01:44:20;97324.41;;;2.79;90.69
82858;BME280;72620;47.774;9.620;2024-02-21T01:46:47;97325.25;;;2.79;90.48
82858;BME280;72620;47.774;9.620;2024-02-21T01:49:15;97325.16;;;2.81;89.95
82858;BME280;72620;47.774;9.620;2024-02-21T01:51:43;97323.34;;;2.83;89.94
82858;BME280;72620;47.774;9.620;2024-02-21T01:54:15;97321.72;;;2.82;89.54
82858;BME280;72620;47.774;9.620;2024-02-21T01:56:44;97327.69;;;2.81;89.55
82858;BME280;72620;47.774;9.620;2024-02-21T01:59:15;97326.81;;;2.82;89.53
82858;BME280;72620;47.774;9.620;2024-02-21T02:01:44;97316.56;;;2.83;89.34
82858;BME280;72620;47.774;9.620;2024-02-21T02:04:13;97325.00;;;2.84;89.85
82858;BME280;72620;47.774;9.620;2024-02-21T02:06:41;97313.94;;;2.85;90.37
82858;BME280;72620;47.774;9.620;2024-02-21T02:09:08;97315.00;;;2.81;89.91
82858;BME280;72620;47.774;9.620;2024-02-21T02:11:36;97317.56;;;2.81;89.86
82858;BME280;72620;47.774;9.620;2024-02-21T02:14:03;97314.38;;;2.77;90.13
82858;BME280;72620;47.774;9.620;2024-02-21T02:16:30;97302.44;;;2.79;90.15
82858;BME280;72620;47.774;9.620;2024-02-21T02:18:57;97291.47;;;2.79;90.98
82858;BME280;72620;47.774;9.620;2024-02-21T02:21:38;97288.84;;;2.80;90.55
82858;BME280;72620;47.774;9.620;2024-02-21T02:24:09;97283.72;;;2.82;91.13
82858;BME280;72620;47.774;9.620;2024-02-21T02:26:36;97291.31;;;2.82;90.63
82858;BME280;72620;47.774;9.620;2024-02-21T02:29:04;97281.16;;;2.82;91.13
82858;BME280;72620;47.774;9.620;2024-02-21T02:31:31;97265.03;;;2.83;91.11
82858;BME280;72620;47.774;9.620;2024-02-21T02:33:58;97257.88;;;2.91;90.48
82858;BME280;72620;47.774;9.620;2024-02-21T02:36:25;97262.78;;;2.94;90.07
82858;BME280;72620;47.774;9.620;2024-02-21T02:38:53;97248.28;;;2.96;90.15
82858;BME280;72620;47.774;9.620;2024-02-21T02:41:20;97241.50;;;2.97;89.75
82858;BME280;72620;47.774;9.620;2024-02-21T02:43:47;97255.75;;;2.99;89.53
82858;BME280;72620;47.774;9.620;2024-02-21T02:46:14;97248.22;;;2.98;90.20
82858;BME280;72620;47.774;9.620;2024-02-21T02:48:41;97245.69;;;2.98;89.59
82858;BME280;72620;47.774;9.620;2024-02-21T02:51:09;97248.22;;;2.98;90.47
82858;BME280;72620;47.774;9.620;2024-02-21T02:53:36;97241.44;;;2.98;89.71
82858;BME280;72620;47.774;9.620;2024-02-21T02:56:03;97246.53;;;2.98;89.04
82858;BME280;72620;47.774;9.620;2024-02-21T02:58:31;97245.59;;;2.99;89.39
82858;BME280;72620;47.774;9.620;2024-02-21T03:00:58;97236.94;;;3.03;89.78
82858;BME280;72620;47.774;9.620;2024-02-21T03:03:25;97242.81;;;3.04;89.53
82858;BME280;72620;47.774;9.620;2024-02-21T03:05:53;97242.91;;;3.02;89.67
82858;BME280;72620;47.774;9.620;2024-02-21T03:08:20;97238.09;;;2.98;89.73
82858;BME280;72620;47.774;9.620;2024-02-21T03:10:47;97229.06;;;2.92;90.05
82858;BME280;72620;47.774;9.620;2024-02-21T03:13:14;97236.69;;;2.92;90.31
82858;BME280;72620;47.774;9.620;2024-02-21T03:15:41;97230.72;;;2.93;89.73
82858;BME280;72620;47.774;9.620;2024-02-21T03:18:08;97228.19;;;2.93;90.05
82858;BME280;72620;47.774;9.620;2024-02-21T03:20:36;97228.19;;;2.93;90.44
82858;BME280;72620;47.774;9.620;2024-02-21T03:23:03;97222.38;;;2.91;90.79
82858;BME280;72620;47.774;9.620;2024-02-21T03:25:30;97226.72;;;2.89;90.83
82858;BME280;72620;47.774;9.620;2024-02-21T03:27:57;97230.88;;;2.90;89.87
82858;BME280;72620;47.774;9.620;2024-02-21T03:30:24;97224.97;;;2.89;90.85
82858;BME280;72620;47.774;9.620;2024-02-21T03:32:52;97222.38;;;2.91;90.80
82858;BME280;72620;47.774;9.620;2024-02-21T03:35:19;97222.03;;;2.97;91.31
82858;BME280;72620;47.774;9.620;2024-02-21T03:37:46;97219.28;;;3.02;90.48
82858;BME280;72620;47.774;9.620;2024-02-21T03:40:13;97216.16;;;3.12;89.90
82858;BME280;72620;47.774;9.620;2024-02-21T03:42:40;97207.56;;;3.15;90.22
82858;BME280;72620;47.774;9.620;2024-02-21T03:45:08;97198.34;;;3.14;90.01
82858;BME280;72620;47.774;9.620;2024-02-21T03:47:35;97188.97;;;3.14;89.63
82858;BME280;72620;47.774;9.620;2024-02-21T03:50:03;97179.66;;;3.15;89.82
82858;BME280;72620;47.774;9.620;2024-02-21T03:52:31;97178.69;;;3.17;89.66
82858;BME280;72620;47.774;9.620;2024-02-21T03:54:58;97180.16;;;3.21;90.31
82858;BME280;72620;47.774;9.620;2024-02-21T03:57:26;97185.31;;;3.20;89.71
82858;BME280;72620;47.774;9.620;2024-02-21T03:59:53;97191.13;;;3.22;89.47
82858;BME280;72620;47.774;9.620;2024-02-21T04:02:20;97190.47;;;3.18;89.73
82858;BME280;72620;47.774;9.620;2024-02-21T04:04:47;97192.25;;;3.16;89.72
82858;BME280;72620;47.774;9.620;2024-02-21T04:07:15;97187.44;;;3.12;89.98
82858;BME280;72620;47.774;9.620;2024-02-21T04:09:42;97182.28;;;3.13;89.79
82858;BME280;72620;47.774;9.620;2024-02-21T04:12:10;97171.22;;;3.14;89.97
82858;BME280;72620;47.774;9.620;2024-02-21T04:14:37;97174.34;;;3.19;89.80
82858;BME280;72620;47.774;9.620;2024-02-21T04:17:04;97168.28;;;3.22;89.52
82858;BME280;72620;47.774;9.620;2024-02-21T04:19:32;97170.47;;;3.28;90.29
82858;BME280;72620;47.774;9.620;2024-02-21T04:22:00;97160.59;;;3.23;90.05
82858;BME280;72620;47.774;9.620;2024-02-21T04:24:28;97154.78;;;3.21;89.42
82858;BME280;72620;47.774;9.620;2024-02-21T04:26:55;97153.16;;;3.20;89.38
82858;BME280;72620;47.774;9.620;2024-02-21T04:29:22;97137.03;;;3.21;90.36
82858;BME280;72620;47.774;9.620;2024-02-21T04:31:50;97135.53;;;3.33;89.09
82858;BME280;72620;47.774;9.620;2024-02-21T04:34:17;97124.28;;;3.37;89.68
82858;BME280;72620;47.774;9.620;2024-02-21T04:36:44;97118.25;;;3.39;87.62
82858;BME280;72620;47.774;9.620;2024-02-21T04:39:12;97114.63;;;3.43;87.36
82858;BME280;72620;47.774;9.620;2024-02-21T04:41:39;97102.41;;;3.50;86.27
82858;BME280;72620;47.774;9.620;2024-02-21T04:44:06;97111.66;;;3.51;87.82
82858;BME280;72620;47.774;9.620;2024-02-21T04:46:33;97098.97;;;3.51;84.87
82858;BME280;72620;47.774;9.620;2024-02-21T04:49:00;97105.13;;;3.61;84.95
82858;BME280;72620;47.774;9.620;2024-02-21T04:51:27;97099.78;;;3.65;84.03
82858;BME280;72620;47.774;9.620;2024-02-21T04:53:54;97112.06;;;3.73;85.36
82858;BME280;72620;47.774;9.620;2024-02-21T04:56:22;97103.63;;;3.73;85.88
82858;BME280;72620;47.774;9.620;2024-02-21T04:58:49;97113.59;;;3.76;85.48
82858;BME280;72620;47.774;9.620;2024-02-21T05:01:16;97118.31;;;3.67;85.31
82858;BME280;72620;47.774;9.620;2024-02-21T05:03:43;97107.16;;;3.56;85.30
82858;BME280;72620;47.774;9.620;2024-02-21T05:06:11;97113.00;;;3.42;86.19
82858;BME280;72620;47.774;9.620;2024-02-21T05:08:39;97101.41;;;3.38;86.21
82858;BME280;72620;47.774;9.620;2024-02-21T05:11:07;97100.91;;;3.32;86.57
82858;BME280;72620;47.774;9.620;2024-02-21T05:13:34;97095.03;;;3.31;85.83
82858;BME280;72620;47.774;9.620;2024-02-21T05:16:02;97084.06;;;3.31;86.30
82858;BME280;72620;47.774;9.620;2024-02-21T05:18:29;97085.66;;;3.32;86.27
82858;BME280;72620;47.774;9.620;2024-02-21T05:20:57;97079.09;;;3.29;86.31
82858;BME280;72620;47.774;9.620;2024-02-21T05:23:24;97068.53;;;3.21;86.27
82858;BME280;72620;47.774;9.620;2024-02-21T05:25:51;97054.66;;;3.13;86.80
82858;BME280;72620;47.774;9.620;2024-02-21T05:28:18;97065.16;;;3.07;86.64
82858;BME280;72620;47.774;9.620;2024-02-21T05:30:45;97068.94;;;3.00;87.00
82858;BME280;72620;47.774;9.620;2024-02-21T05:33:12;97066.81;;;2.92;87.24
82858;BME280;72620;47.774;9.620;2024-02-21T05:35:48;97064.38;;;2.90;87.82
82858;BME280;72620;47.774;9.620;2024-02-21T05:38:16;97075.13;;;2.94;87.81
82858;BME280;72620;47.774;9.620;2024-02-21T05:40:46;97076.53;;;3.00;87.85
82858;BME280;72620;47.774;9.620;2024-02-21T05:43:13;97074.00;;;3.00;88.29
82858;BME280;72620;47.774;9.620;2024-02-21T05:45:40;97073.84;;;3.03;87.86
82858;BME280;72620;47.774;9.620;2024-02-21T05:48:08;97072.81;;;3.05;88.03
82858;BME280;72620;47.774;9.620;2024-02-21T05:50:35;97066.69;;;3.09;87.90
82858;BME280;72620;47.774;9.620;2024-02-21T05:53:02;97067.34;;;3.13;87.88
82858;BME280;72620;47.774;9.620;2024-02-21T05:55:30;97066.50;;;3.12;87.92
82858;BME280;72620;47.774;9.620;2024-02-21T05:57:57;97052.75;;;3.16;87.69
82858;BME280;72620;47.774;9.620;2024-02-21T06:00:24;97051.28;;;3.12;87.65
82858;BME280;72620;47.774;9.620;2024-02-21T06:02:51;97052.28;;;3.10;88.20
82858;BME280;72620;47.774;9.620;2024-02-21T06:05:18;97034.53;;;3.10;88.36
82858;BME280;72620;47.774;9.620;2024-02-21T06:07:46;97030.28;;;3.10;87.94
82858;BME280;72620;47.774;9.620;2024-02-21T06:10:13;97021.84;;;3.10;88.83
82858;BME280;72620;47.774;9.620;2024-02-21T06:12:40;97015.97;;;3.09;88.18
82858;BME280;72620;47.774;9.620;2024-02-21T06:15:08;97024.38;;;3.10;88.40
82858;BME280;72620;47.774;9.620;2024-02-21T06:17:35;97030.94;;;3.14;88.35
82858;BME280;72620;47.774;9.620;2024-02-21T06:20:02;97026.34;;;3.20;87.60
82858;BME280;72620;47.774;9.620;2024-02-21T06:22:30;97040.38;;;3.26;87.46
82858;BME280;72620;47.774;9.620;2024-02-21T06:24:58;97045.19;;;3.30;87.03
82858;BME280;72620;47.774;9.620;2024-02-21T06:27:25;97034.94;;;3.32;87.07
82858;BME280;72620;47.774;9.620;2024-02-21T06:29:53;97030.50;;;3.35;86.87
82858;BME280;72620;47.774;9.620;2024-02-21T06:32:20;97023.25;;;3.43;86.57
82858;BME280;72620;47.774;9.620;2024-02-21T06:34:47;97009.31;;;3.50;85.99
82858;BME280;72620;47.774;9.620;2024-02-21T06:37:14;97018.94;;;3.59;85.56
82858;BME280;72620;47.774;9.620;2024-02-21T06:39:41;97002.34;;;3.68;85.02
82858;BME280;72620;47.774;9.620;2024-02-21T06:42:09;97006.88;;;3.77;84.55
82858;BME280;72620;47.774;9.620;2024-02-21T06:44:36;97004.72;;;3.85;84.89
82858;BME280;72620;47.774;9.620;2024-02-21T06:47:07;97007.16;;;3.87;84.78
82858;BME280;72620;47.774;9.620;2024-02-21T06:49:35;97006.97;;;3.90;84.08
82858;BME280;72620;47.774;9.620;2024-02-21T06:52:04;97005.06;;;3.93;83.54
82858;BME280;72620;47.774;9.620;2024-02-21T06:54:32;97008.41;;;3.94;83.80
82858;BME280;72620;47.774;9.620;2024-02-21T06:56:59;97004.59;;;4.01;82.80
82858;BME280;72620;47.774;9.620;2024-02-21T06:59:27;97008.75;;;4.02;83.30
82858;BME280;72620;47.774;9.620;2024-02-21T07:01:54;97008.75;;;4.02;83.30
82858;BME280;72620;47.774;9.620;2024-02-21T07:04:22;96995.88;;;4.05;83.72
82858;BME280;72620;47.774;9.620;2024-02-21T07:06:50;97002.94;;;4.14;83.51
82858;BME280;72620;47.774;9.620;2024-02-21T07:09:18;97005.75;;;4.23;83.22
82858;BME280;72620;47.774;9.620;2024-02-21T07:11:45;97002.00;;;4.29;83.12
82858;BME280;72620;47.774;9.620;2024-02-21T07:14:14;97013.53;;;4.34;83.27
82858;BME280;72620;47.774;9.620;2024-02-21T07:16:42;97002.88;;;4.42;82.79
82858;BME280;72620;47.774;9.620;2024-02-21T07:19:09;96998.44;;;4.46;82.85
82858;BME280;72620;47.774;9.620;2024-02-21T07:21:36;96993.56;;;4.55;82.53
82858;BME280;72620;47.774;9.620;2024-02-21T07:24:08;96991.25;;;4.65;81.97
82858;BME280;72620;47.774;9.620;2024-02-21T07:26:36;96986.00;;;4.80;81.04
82858;BME280;72620;47.774;9.620;2024-02-21T07:29:03;96993.41;;;4.97;80.76
82858;BME280;72620;47.774;9.620;2024-02-21T07:31:30;97004.88;;;5.03;81.03
82858;BME280;72620;47.774;9.620;2024-02-21T07:33:58;97006.00;;;5.11;80.67
82858;BME280;72620;47.774;9.620;2024-02-21T07:36:28;97004.59;;;5.20;81.12
82858;BME280;72620;47.774;9.620;2024-02-21T07:38:57;97001.16;;;5.34;79.21
82858;BME280;72620;47.774;9.620;2024-02-21T07:41:25;97003.41;;;5.51;79.14
82858;BME280;72620;47.774;9.620;2024-02-21T07:43:52;97004.22;;;5.64;77.79
82858;BME280;72620;47.774;9.620;2024-02-21T07:46:19;96999.22;;;5.75;77.01
82858;BME280;72620;47.774;9.620;2024-02-21T07:48:47;97000.06;;;5.88;76.49
82858;BME280;72620;47.774;9.620;2024-02-21T07:51:14;96997.19;;;6.05;75.50
82858;BME280;72620;47.774;9.620;2024-02-21T07:53:45;96998.59;;;6.45;73.83
82858;BME280;72620;47.774;9.620;2024-02-21T07:56:13;96994.50;;;6.67;72.94
82858;BME280;72620;47.774;9.620;2024-02-21T07:58:42;97003.72;;;6.80;72.22
82858;BME280;72620;47.774;9.620;2024-02-21T08:01:10;96992.19;;;6.98;70.82
82858;BME280;72620;47.774;9.620;2024-02-21T08:03:38;96997.03;;;7.25;70.62
82858;BME280;72620;47.774;9.620;2024-02-21T08:06:05;96985.00;;;7.82;67.99
82858;BME280;72620;47.774;9.620;2024-02-21T08:08:32;96979.88;;;8.38;64.89
82858;BME280;72620;47.774;9.620;2024-02-21T08:10:59;96980.50;;;8.94;64.68
82858;BME280;72620;47.774;9.620;2024-02-21T08:13:26;96978.13;;;9.43;63.67
82858;BME280;72620;47.774;9.620;2024-02-21T08:15:55;96971.31;;;9.53;62.50
82858;BME280;72620;47.774;9.620;2024-02-21T08:18:23;96965.31;;;9.64;61.11
82858;BME280;72620;47.774;9.620;2024-02-21T08:20:51;96970.25;;;9.86;61.31
82858;BME280;72620;47.774;9.620;2024-02-21T08:23:19;96959.88;;;10.17;57.68
82858;BME280;72620;47.774;9.620;2024-02-21T08:25:50;96958.56;;;10.42;58.45
82858;BME280;72620;47.774;9.620;2024-02-21T08:28:17;96955.59;;;10.94;56.48
82858;BME280;72620;47.774;9.620;2024-02-21T08:30:44;96939.78;;;11.64;55.54
82858;BME280;72620;47.774;9.620;2024-02-21T08:33:15;96946.09;;;12.07;54.73
82858;BME280;72620;47.774;9.620;2024-02-21T08:35:43;96951.00;;;12.27;55.43
82858;BME280;72620;47.774;9.620;2024-02-21T08:38:10;96928.31;;;12.58;53.22
82858;BME280;72620;47.774;9.620;2024-02-21T08:40:37;96933.06;;;12.53;52.21
82858;BME280;72620;47.774;9.620;2024-02-21T08:43:05;96944.56;;;12.41;54.43
82858;BME280;72620;47.774;9.620;2024-02-21T08:45:32;96940.34;;;12.22;52.19
82858;BME280;72620;47.774;9.620;2024-02-21T08:47:59;96937.44;;;12.08;53.75
82858;BME280;72620;47.774;9.620;2024-02-21T08:50:26;96948.63;;;11.89;53.36
82858;BME280;72620;47.774;9.620;2024-02-21T08:52:55;96942.88;;;12.05;51.03
82858;BME280;72620;47.774;9.620;2024-02-21T08:55:22;96934.09;;;11.98;50.44
82858;BME280;72620;47.774;9.620;2024-02-21T08:57:51;96936.28;;;11.93;52.65
82858;BME280;72620;47.774;9.620;2024-02-21T09:00:18;96944.59;;;12.14;51.36
82858;BME280;72620;47.774;9.620;2024-02-21T09:02:50;96931.84;;;12.40;52.17
82858;BME280;72620;47.774;9.620;2024-02-21T09:05:17;96932.63;;;12.58;49.80
82858;BME280;72620;47.774;9.620;2024-02-21T09:07:46;96930.59;;;12.61;48.77
82858;BME280;72620;47.774;9.620;2024-02-21T09:10:13;96927.41;;;12.85;48.53
82858;BME280;72620;47.774;9.620;2024-02-21T09:12:41;96930.50;;;12.88;48.64
82858;BME280;72620;47.774;9.620;2024-02-21T09:15:08;96923.94;;;12.94;50.32
82858;BME280;72620;47.774;9.620;2024-02-21T09:17:35;96917.22;;;13.01;47.81
82858;BME280;72620;47.774;9.620;2024-02-21T09:20:03;96920.66;;;12.84;49.47
82858;BME280;72620;47.774;9.620;2024-02-21T09:22:30;96924.94;;;12.75;49.11
82858;BME280;72620;47.774;9.620;2024-02-21T09:25:01;96917.63;;;12.53;50.30
82858;BME280;72620;47.774;9.620;2024-02-21T09:27:30;96916.97;;;12.69;51.11
82858;BME280;72620;47.774;9.620;2024-02-21T09:29:57;96914.38;;;12.69;50.93
82858;BME280;72620;47.774;9.620;2024-02-21T09:32:25;96919.97;;;12.29;52.53
82858;BME280;72620;47.774;9.620;2024-02-21T09:34:52;96923.19;;;12.13;50.46
82858;BME280;72620;47.774;9.620;2024-02-21T09:37:26;96911.00;;;11.88;52.46
82858;BME280;72620;47.774;9.620;2024-02-21T09:39:53;96915.47;;;11.49;55.51
82858;BME280;72620;47.774;9.620;2024-02-21T09:42:21;96914.19;;;11.26;56.82
82858;BME280;72620;47.774;9.620;2024-02-21T09:44:50;96908.53;;;11.23;55.75
82858;BME280;72620;47.774;9.620;2024-02-21T09:47:22;96903.47;;;11.31;56.60
82858;BME280;72620;47.774;9.620;2024-02-21T09:50:00;96904.41;;;11.39;56.51
82858;BME280;72620;47.774;9.620;2024-02-21T09:52:32;96902.31;;;11.52;55.01
82858;BME280;72620;47.774;9.620;2024-02-21T09:55:02;96893.06;;;11.32;54.83
82858;BME280;72620;47.774;9.620;2024-02-21T09:57:31;96894.53;;;11.35;55.52
82858;BME280;72620;47.774;9.620;2024-02-21T10:00:00;96901.13;;;11.47;55.99
82858;BME280;72620;47.774;9.620;2024-02-21T10:02:34;96898.56;;;11.47;55.72
82858;BME280;72620;47.774;9.620;2024-02-21T10:05:01;96890.00;;;11.56;54.91
82858;BME280;72620;47.774;9.620;2024-02-21T10:07:31;96888.84;;;11.78;55.51
82858;BME280;72620;47.774;9.620;2024-02-21T10:10:05;96890.59;;;12.04;54.87
82858;BME280;72620;47.774;9.620;2024-02-21T10:12:33;96888.53;;;11.90;53.60
82858;BME280;72620;47.774;9.620;2024-02-21T10:15:05;96885.53;;;11.95;53.18
82858;BME280;72620;47.774;9.620;2024-02-21T10:17:33;96888.59;;;12.43;54.11
82858;BME280;72620;47.774;9.620;2024-02-21T10:20:10;96885.72;;;12.64;50.27
82858;BME280;72620;47.774;9.620;2024-02-21T10:22:41;96879.34;;;13.11;50.13
82858;BME280;72620;47.774;9.620;2024-02-21T10:25:09;96882.38;;;13.06;51.83
82858;BME280;72620;47.774;9.620;2024-02-21T10:27:37;96881.91;;;13.11;50.20
82858;BME280;72620;47.774;9.620;2024-02-21T10:30:07;96881.66;;;13.22;50.68
82858;BME280;72620;47.774;9.620;2024-02-21T10:32:57;96881.66;;;13.22;50.29
82858;BME280;72620;47.774;9.620;2024-02-21T10:35:32;96876.78;;;12.76;50.80
82858;BME280;72620;47.774;9.620;2024-02-21T10:38:00;96877.78;;;12.57;51.26
82858;BME280;72620;47.774;9.620;2024-02-21T10:40:28;96858.25;;;12.19;50.98
82858;BME280;72620;47.774;9.620;2024-02-21T10:43:01;96853.91;;;12.02;53.06
82858;BME280;72620;47.774;9.620;2024-02-21T10:45:32;96851.50;;;12.01;52.45
82858;BME280;72620;47.774;9.620;2024-02-21T10:48:27;96848.75;;;11.85;52.46
82858;BME280;72620;47.774;9.620;2024-02-21T10:51:20;96844.84;;;11.81;54.09
82858;BME280;72620;47.774;9.620;2024-02-21T10:54:15;96835.59;;;11.88;53.19
82858;BME280;72620;47.774;9.620;2024-02-21T10:57:08;96833.91;;;11.79;51.92
82858;BME280;72620;47.774;9.620;2024-02-21T10:59:37;96830.75;;;11.48;53.89
82858;BME280;72620;47.774;9.620;2024-02-21T11:02:06;96825.44;;;11.32;53.69
82858;BME280;72620;47.774;9.620;2024-02-21T11:04:36;96821.59;;;11.45;55.94
82858;BME280;72620;47.774;9.620;2024-02-21T11:07:05;96817.38;;;11.54;53.81
82858;BME280;72620;47.774;9.620;2024-02-21T11:09:37;96806.50;;;11.60;52.11
82858;BME280;72620;47.774;9.620;2024-02-21T11:12:06;96795.56;;;11.58;55.37
82858;BME280;72620;47.774;9.620;2024-02-21T11:14:34;96792.09;;;11.77;52.53
82858;BME280;72620;47.774;9.620;2024-02-21T11:17:19;96788.44;;;11.97;53.21
82858;BME280;72620;47.774;9.620;2024-02-21T11:19:53;96785.25;;;11.85;50.00
82858;BME280;72620;47.774;9.620;2024-02-21T11:22:21;96783.84;;;11.73;52.29
82858;BME280;72620;47.774;9.620;2024-02-21T11:24:51;96771.09;;;11.81;50.68
82858;BME280;72620;47.774;9.620;2024-02-21T11:27:22;96774.59;;;11.80;52.69
82858;BME280;72620;47.774;9.620;2024-02-21T11:29:57;96768.31;;;11.65;51.16
82858;BME280;72620;47.774;9.620;2024-02-21T11:32:26;96759.59;;;11.48;51.49
82858;BME280;72620;47.774;9.620;2024-02-21T11:35:02;96755.22;;;11.58;52.09
82858;BME280;72620;47.774;9.620;2024-02-21T11:37:35;96745.63;;;11.60;52.40
82858;BME280;72620;47.774;9.620;2024-02-21T11:40:07;96739.25;;;11.82;50.78
82858;BME280;72620;47.774;9.620;2024-02-21T11:42:38;96733.50;;;11.88;51.60
82858;BME280;72620;47.774;9.620;2024-02-21T11:45:06;96730.81;;;12.07;50.71
82858;BME280;72620;47.774;9.620;2024-02-21T11:47:36;96734.47;;;11.87;50.44
82858;BME280;72620;47.774;9.620;2024-02-21T11:50:09;96723.00;;;11.82;50.27
82858;BME280;72620;47.774;9.620;2024-02-21T11:52:39;96720.16;;;11.85;51.61
82858;BME280;72620;47.774;9.620;2024-02-21T11:55:06;96722.34;;;12.15;51.45
82858;BME280;72620;47.774;9.620;2024-02-21T11:57:37;96710.91;;;12.17;50.25
82858;BME280;72620;47.774;9.620;2024-02-21T12:00:15;96706.91;;;12.15;51.44
82858;BME280;72620;47.774;9.620;2024-02-21T12:02:50;96696.47;;;12.16;50.04
82858;BME280;72620;47.774;9.620;2024-02-21T12:05:20;96689.63;;;12.07;50.44
82858;BME280;72620;47.774;9.620;2024-02-21T12:07:47;96689.41;;;12.18;49.74
82858;BME280;72620;47.774;9.620;2024-02-21T12:10:14;96679.78;;;12.28;50.16
82858;BME280;72620;47.774;9.620;2024-02-21T12:12:42;96670.41;;;12.45;49.36
82858;BME280;72620;47.774;9.620;2024-02-21T12:15:09;96669.31;;;12.48;50.63
82858;BME280;72620;47.774;9.620;2024-02-21T12:17:37;96667.75;;;12.29;49.56
82858;BME280;72620;47.774;9.620;2024-02-21T12:20:06;96665.31;;;12.27;48.54
82858;BME280;72620;47.774;9.620;2024-02-21T12:22:41;96651.91;;;12.16;48.60
82858;BME280;72620;47.774;9.620;2024-02-21T12:25:19;96649.28;;;12.33;48.58
82858;BME280;72620;47.774;9.620;2024-02-21T12:27:49;96644.75;;;12.27;48.05
82858;BME280;72620;47.774;9.620;2024-02-21T12:30:18;96638.69;;;12.36;48.84
82858;BME280;72620;47.774;9.620;2024-02-21T12:32:46;96628.03;;;12.31;48.75
82858;BME280;72620;47.774;9.620;2024-02-21T12:35:17;96625.19;;;12.43;49.62
82858;BME280;72620;47.774;9.620;2024-02-21T12:37:46;96621.03;;;12.42;48.42
82858;BME280;72620;47.774;9.620;2024-02-21T12:40:13;96612.66;;;12.48;49.39
82858;BME280;72620;47.774;9.620;2024-02-21T12:42:42;96606.59;;;12.57;49.09
82858;BME280;72620;47.774;9.620;2024-02-21T12:45:09;96612.41;;;12.67;48.28
82858;BME280;72620;47.774;9.620;2024-02-21T12:47:37;96607.72;;;12.54;48.19
82858;BME280;72620;47.774;9.620;2024-02-21T12:50:04;96604.25;;;12.37;49.04
82858;BME280;72620;47.774;9.620;2024-02-21T12:52:34;96603.13;;;12.40;48.84
82858;BME280;72620;47.774;9.620;2024-02-21T12:55:01;96601.56;;;12.47;48.88
82858;BME280;72620;47.774;9.620;2024-02-21T12:57:28;96592.25;;;12.46;49.62
82858;BME280;72620;47.774;9.620;2024-02-21T12:59:55;96581.13;;;12.46;49.11
82858;BME280;72620;47.774;9.620;2024-02-21T13:02:22;96583.63;;;12.29;49.33
82858;BME280;72620;47.774;9.620;2024-02-21T13:04:50;96573.09;;;12.15;49.85
82858;BME280;72620;47.774;9.620;2024-02-21T13:07:17;96566.44;;;12.04;49.79
82858;BME280;72620;47.774;9.620;2024-02-21T13:09:44;96565.16;;;12.08;50.63
82858;BME280;72620;47.774;9.620;2024-02-21T13:12:11;96552.97;;;12.10;50.59
82858;BME280;72620;47.774;9.620;2024-02-21T13:14:39;96558.44;;;12.07;50.18